Time;durP1;ratioP1;P1;durP2;ratioP2;P2;SDS_P1;SDS_P2;PMS_P1;PMS_P2;Temp;Humidity;BMP_temperature;BMP_pressure;BME280_temperature;BME280_humidity;BME280_pressure;Samples;Min_cycle;Max_cycle;Signal;HPM_P1;HPM_P2
2023/09/30 00:01:27;;;;;;;78.65;35.25;;;;;;;;;;6264510;28;20056;-62
2023/09/30 00:04:28;;;;;;;81.93;36.28;;;;;;;;;;6264950;28;20045;-62
2023/09/30 00:07:29;;;;;;;71.55;35.72;;;;;;;;;;6263484;28;20045;-62
2023/09/30 00:10:30;;;;;;;72.03;35.92;;;;;;;;;;6263876;28;20041;-63
2023/09/30 00:13:31;;;;;;;73.63;34.35;;;;;;;;;;6264222;28;20489;-62
2023/09/30 00:16:32;;;;;;;71.63;35.87;;;;;;;;;;6264015;28;20045;-62
2023/09/30 00:19:33;;;;;;;71.97;35.25;;;;;;;;;;6264305;28;20033;-62
2023/09/30 00:22:33;;;;;;;73.82;35.15;;;;;;;;;;6261085;28;20053;-63
2023/09/30 00:25:34;;;;;;;79.97;36.13;;;;;;;;;;6261630;28;20492;-62
2023/09/30 00:28:34;;;;;;;68.22;32.92;;;;;;;;;;6264191;28;20126;-62
2023/09/30 00:31:35;;;;;;;77.32;33.75;;;;;;;;;;6263877;28;20623;-62
2023/09/30 00:34:35;;;;;;;67.55;33.92;;;;;;;;;;6263992;28;20387;-63
2023/09/30 00:37:41;;;;;;;65.47;32.50;;;;;;;;;;6265902;28;20048;-63
2023/09/30 00:40:50;;;;;;;67.65;33.85;;;;;;;;;;6261669;28;20155;-63
2023/09/30 00:43:51;;;;;;;69.78;34.58;;;;;;;;;;6250743;28;20052;-63
2023/09/30 00:46:53;;;;;;;68.85;34.80;;;;;;;;;;6268733;28;20483;-63
2023/09/30 00:49:54;;;;;;;70.10;34.97;;;;;;;;;;6268652;28;20052;-62
2023/09/30 00:52:55;;;;;;;68.35;33.65;;;;;;;;;;6267685;28;20052;-62
2023/09/30 00:55:57;;;;;;;70.38;34.15;;;;;;;;;;6268840;28;20413;-63
2023/09/30 00:58:58;;;;;;;67.10;34.28;;;;;;;;;;6267206;28;20507;-62
2023/09/30 01:02:00;;;;;;;70.20;33.55;;;;;;;;;;6269115;28;20061;-62
2023/09/30 01:05:01;;;;;;;67.55;34.70;;;;;;;;;;6268261;28;20056;-62
2023/09/30 01:08:02;;;;;;;67.40;33.13;;;;;;;;;;6266552;28;20068;-63
2023/09/30 01:11:03;;;;;;;70.57;34.22;;;;;;;;;;6266780;28;20037;-62
2023/09/30 01:14:04;;;;;;;69.80;32.92;;;;;;;;;;6267139;28;20060;-63
2023/09/30 01:17:08;;;;;;;64.25;33.20;;;;;;;;;;6267868;28;20045;-63
2023/09/30 01:20:11;;;;;;;62.42;32.38;;;;;;;;;;6267862;28;20535;-63
2023/09/30 01:23:11;;;;;;;60.30;31.80;;;;;;;;;;6267207;28;20076;-63
2023/09/30 01:26:13;;;;;;;65.13;31.98;;;;;;;;;;6257768;28;20060;-64
2023/09/30 01:29:13;;;;;;;62.03;31.77;;;;;;;;;;6267986;28;20045;-63
2023/09/30 01:32:14;;;;;;;63.45;31.20;;;;;;;;;;6267488;28;20071;-64
2023/09/30 01:35:15;;;;;;;60.67;31.73;;;;;;;;;;6267412;28;20479;-63
2023/09/30 01:38:16;;;;;;;65.53;32.75;;;;;;;;;;6267870;28;20141;-63
2023/09/30 01:41:16;;;;;;;62.13;31.52;;;;;;;;;;6267475;28;20047;-63
2023/09/30 01:44:17;;;;;;;62.28;32.15;;;;;;;;;;6265304;28;20057;-64
2023/09/30 01:47:17;;;;;;;63.58;31.15;;;;;;;;;;6266223;28;20049;-63
2023/09/30 01:50:18;;;;;;;65.05;30.63;;;;;;;;;;6267016;28;20098;-62
2023/09/30 01:53:19;;;;;;;63.90;30.92;;;;;;;;;;6266031;28;20472;-62
2023/09/30 01:56:20;;;;;;;57.65;29.88;;;;;;;;;;6267003;28;20064;-63
2023/09/30 01:59:21;;;;;;;63.70;30.10;;;;;;;;;;6267485;28;20442;-62
2023/09/30 02:02:21;;;;;;;60.60;30.93;;;;;;;;;;6262660;28;20060;-63
2023/09/30 02:05:23;;;;;;;59.08;29.63;;;;;;;;;;6265615;28;20687;-62
2023/09/30 02:08:24;;;;;;;60.92;29.52;;;;;;;;;;6267071;28;20094;-62
2023/09/30 02:11:24;;;;;;;55.95;29.38;;;;;;;;;;6266896;28;20452;-62
2023/09/30 02:14:25;;;;;;;62.30;31.02;;;;;;;;;;6265380;28;20041;-62
2023/09/30 02:17:26;;;;;;;59.70;29.00;;;;;;;;;;6266001;28;20056;-63
2023/09/30 02:20:30;;;;;;;54.97;27.27;;;;;;;;;;6266584;28;20052;-62
2023/09/30 02:23:30;;;;;;;51.10;26.17;;;;;;;;;;6264823;28;20044;-62
2023/09/30 02:26:31;;;;;;;55.30;25.85;;;;;;;;;;6264870;28;20044;-62
2023/09/30 02:29:32;;;;;;;50.30;26.27;;;;;;;;;;6265089;28;20048;-63
2023/09/30 02:32:33;;;;;;;47.47;24.73;;;;;;;;;;6265345;28;20044;-63
2023/09/30 02:35:33;;;;;;;41.97;22.55;;;;;;;;;;6264538;28;20048;-62
2023/09/30 02:38:37;;;;;;;42.53;22.25;;;;;;;;;;6266522;28;20090;-62
2023/09/30 02:41:37;;;;;;;42.92;22.13;;;;;;;;;;6265941;28;20053;-62
2023/09/30 02:44:38;;;;;;;41.28;21.75;;;;;;;;;;6258755;28;20055;-62
2023/09/30 02:47:39;;;;;;;42.60;21.45;;;;;;;;;;6262617;28;20056;-63
2023/09/30 02:50:44;;;;;;;41.33;22.25;;;;;;;;;;6259609;28;20041;-62
2023/09/30 02:53:46;;;;;;;41.22;20.67;;;;;;;;;;6262329;28;20139;-63
2023/09/30 02:56:47;;;;;;;42.83;21.50;;;;;;;;;;6260022;28;20053;-63
2023/09/30 02:59:47;;;;;;;43.67;22.65;;;;;;;;;;6264390;28;20056;-62
2023/09/30 03:02:59;;;;;;;39.60;21.50;;;;;;;;;;6250440;28;20045;-63
2023/09/30 03:06:00;;;;;;;48.55;23.77;;;;;;;;;;6241832;28;20045;-63
2023/09/30 03:09:02;;;;;;;42.13;23.50;;;;;;;;;;6244482;28;20046;-63
2023/09/30 03:12:04;;;;;;;;;;;;;;;;;;6246610;28;20466;-63
2023/09/30 03:15:06;;;;;;;30.27;16.25;;;;;;;;;;6243133;28;19921;-63
2023/09/30 03:18:07;;;;;;;36.25;17.90;;;;;;;;;;6240298;28;20065;-62
2023/09/30 03:21:14;;;;;;;34.53;16.50;;;;;;;;;;6241607;28;20468;-62
2023/09/30 03:24:14;;;;;;;26.25;14.25;;;;;;;;;;6247602;28;20049;-62
2023/09/30 03:27:15;;;;;;;31.45;14.60;;;;;;;;;;6255851;28;20187;-62
2023/09/30 03:30:17;;;;;;;28.40;13.93;;;;;;;;;;6245786;28;20147;-62
2023/09/30 03:33:18;;;;;;;23.92;14.18;;;;;;;;;;6243738;28;20576;-61
2023/09/30 03:36:18;;;;;;;33.67;15.00;;;;;;;;;;6244016;28;20049;-62
2023/09/30 03:39:26;;;;;;;25.88;13.68;;;;;;;;;;6240637;28;20076;-63
2023/09/30 03:42:30;;;;;;;24.25;13.35;;;;;;;;;;6242741;28;20041;-63
2023/09/30 03:45:32;;;;;;;25.65;13.23;;;;;;;;;;6242684;28;20051;-62
2023/09/30 03:48:38;;;;;;;25.13;13.32;;;;;;;;;;6242854;28;20048;-62
2023/09/30 03:51:40;;;;;;;26.15;12.88;;;;;;;;;;6240723;28;20046;-62
2023/09/30 03:54:41;;;;;;;23.85;13.02;;;;;;;;;;6241808;28;20128;-61
2023/09/30 03:57:42;;;;;;;23.27;12.45;;;;;;;;;;6242374;28;20045;-62
2023/09/30 04:00:42;;;;;;;24.77;11.82;;;;;;;;;;6242868;28;20076;-62
2023/09/30 04:03:43;;;;;;;21.58;11.85;;;;;;;;;;6242943;28;20504;-63
2023/09/30 04:06:44;;;;;;;20.42;11.95;;;;;;;;;;6242075;28;20049;-62
2023/09/30 04:09:44;;;;;;;21.92;11.70;;;;;;;;;;6242992;28;20115;-62
2023/09/30 04:12:45;;;;;;;22.80;12.73;;;;;;;;;;6242760;28;20045;-62
2023/09/30 04:15:46;;;;;;;30.23;12.35;;;;;;;;;;6241313;28;20095;-62
2023/09/30 04:18:47;;;;;;;24.33;12.67;;;;;;;;;;6247605;28;20537;-63
2023/09/30 04:21:47;;;;;;;22.58;12.45;;;;;;;;;;6247699;28;20049;-61
2023/09/30 04:24:51;;;;;;;24.38;13.05;;;;;;;;;;6247594;28;20049;-62
2023/09/30 04:27:51;;;;;;;25.48;13.43;;;;;;;;;;6247483;28;20089;-62
2023/09/30 04:30:53;;;;;;;28.20;13.98;;;;;;;;;;6248192;28;20504;-62
2023/09/30 04:33:53;;;;;;;27.42;13.90;;;;;;;;;;6249534;28;20520;-62
2023/09/30 04:36:54;;;;;;;23.90;13.70;;;;;;;;;;6256679;28;20049;-62
2023/09/30 04:39:55;;;;;;;23.02;13.50;;;;;;;;;;6247518;28;20107;-62
2023/09/30 04:42:58;;;;;;;27.80;14.73;;;;;;;;;;6246921;28;20062;-62
2023/09/30 04:45:59;;;;;;;26.42;14.75;;;;;;;;;;6243785;28;20504;-62
2023/09/30 04:48:59;;;;;;;30.27;15.88;;;;;;;;;;6250358;28;20040;-62
2023/09/30 04:52:00;;;;;;;30.98;14.80;;;;;;;;;;6265098;28;20075;-62
2023/09/30 04:55:01;;;;;;;30.33;15.07;;;;;;;;;;6250932;28;20064;-62
2023/09/30 04:58:02;;;;;;;30.88;14.90;;;;;;;;;;6253763;28;20037;-62
2023/09/30 05:01:02;;;;;;;33.28;15.90;;;;;;;;;;6257629;28;20053;-62
2023/09/30 05:04:03;;;;;;;31.08;15.93;;;;;;;;;;6246719;28;20320;-63
2023/09/30 05:07:04;;;;;;;30.80;15.82;;;;;;;;;;6245007;28;20103;-62
2023/09/30 05:10:10;;;;;;;28.88;16.17;;;;;;;;;;6244404;28;20069;-66
2023/09/30 05:13:10;;;;;;;28.52;15.57;;;;;;;;;;6248851;28;20061;-62
2023/09/30 05:16:13;;;;;;;29.75;15.82;;;;;;;;;;6260808;28;20052;-61
2023/09/30 05:19:13;;;;;;;30.80;16.42;;;;;;;;;;6247177;28;20049;-62
2023/09/30 05:22:15;;;;;;;34.85;16.42;;;;;;;;;;6246869;28;20068;-62
2023/09/30 05:25:16;;;;;;;29.90;16.10;;;;;;;;;;6245599;28;20041;-62
2023/09/30 05:28:17;;;;;;;29.85;16.70;;;;;;;;;;6244629;28;20054;-62
2023/09/30 05:31:17;;;;;;;37.88;17.27;;;;;;;;;;6259563;28;20480;-64
2023/09/30 05:34:18;;;;;;;31.10;16.92;;;;;;;;;;6266003;28;20388;-66
2023/09/30 05:37:21;;;;;;;35.22;17.65;;;;;;;;;;6265648;28;20455;-61
2023/09/30 05:40:23;;;;;;;29.83;16.70;;;;;;;;;;6259526;28;20045;-62
2023/09/30 05:43:24;;;;;;;;;;;;;;;;;;6267536;28;20048;-61
2023/09/30 05:46:27;;;;;;;30.17;16.67;;;;;;;;;;6263713;28;19925;-62
2023/09/30 05:49:27;;;;;;;33.42;17.02;;;;;;;;;;6267050;28;20049;-61
2023/09/30 05:52:28;;;;;;;32.55;17.38;;;;;;;;;;6267038;28;20523;-61
2023/09/30 05:55:29;;;;;;;31.50;16.80;;;;;;;;;;6267564;28;20053;-62
2023/09/30 05:58:29;;;;;;;31.67;16.80;;;;;;;;;;6265551;28;20041;-61
2023/09/30 06:01:33;;;;;;;31.25;16.55;;;;;;;;;;6263983;28;20063;-61
2023/09/30 06:04:34;;;;;;;30.02;16.50;;;;;;;;;;6262886;28;20049;-62
2023/09/30 06:07:34;;;;;;;29.27;16.90;;;;;;;;;;6262711;28;20048;-61
2023/09/30 06:10:37;;;;;;;30.85;16.85;;;;;;;;;;6263541;28;20057;-62
2023/09/30 06:13:38;;;;;;;35.83;17.83;;;;;;;;;;6265932;28;20041;-62
2023/09/30 06:16:38;;;;;;;33.63;17.17;;;;;;;;;;6266773;28;20507;-62
2023/09/30 06:19:39;;;;;;;31.40;16.70;;;;;;;;;;6267935;28;20049;-62
2023/09/30 06:22:40;;;;;;;32.25;17.98;;;;;;;;;;6266587;28;20488;-62
2023/09/30 06:25:41;;;;;;;28.08;16.77;;;;;;;;;;6265959;28;20045;-61
2023/09/30 06:28:42;;;;;;;30.85;17.65;;;;;;;;;;6266239;28;20055;-61
2023/09/30 06:31:43;;;;;;;34.80;16.63;;;;;;;;;;6264110;28;20044;-62
2023/09/30 06:34:44;;;;;;;31.30;16.65;;;;;;;;;;6265402;28;20049;-62
2023/09/30 06:37:45;;;;;;;29.73;16.45;;;;;;;;;;6265646;28;20044;-62
2023/09/30 06:40:47;;;;;;;30.92;16.38;;;;;;;;;;6262554;28;20565;-62
2023/09/30 06:43:48;;;;;;;33.13;16.98;;;;;;;;;;6260779;28;20053;-62
2023/09/30 06:46:50;;;;;;;25.85;14.95;;;;;;;;;;6260424;28;20170;-63
2023/09/30 06:49:50;;;;;;;24.27;14.98;;;;;;;;;;6266054;28;20045;-61
2023/09/30 06:52:51;;;;;;;25.20;13.95;;;;;;;;;;6263779;28;20403;-63
2023/09/30 06:55:52;;;;;;;28.38;15.48;;;;;;;;;;6266343;28;20036;-62
2023/09/30 06:58:53;;;;;;;27.85;14.55;;;;;;;;;;6263819;28;20045;-61
2023/09/30 07:01:54;;;;;;;29.05;15.13;;;;;;;;;;6263472;28;20411;-61
2023/09/30 07:04:55;;;;;;;31.10;14.75;;;;;;;;;;6264703;28;20484;-61
2023/09/30 07:07:56;;;;;;;29.08;14.57;;;;;;;;;;6264206;28;20040;-61
2023/09/30 07:10:56;;;;;;;26.13;14.10;;;;;;;;;;6261685;28;20048;-62
2023/09/30 07:13:57;;;;;;;27.42;14.00;;;;;;;;;;6263702;28;20190;-66
2023/09/30 07:16:58;;;;;;;25.33;13.93;;;;;;;;;;6262766;28;20049;-62
2023/09/30 07:19:59;;;;;;;24.73;14.73;;;;;;;;;;6263356;28;20049;-62
2023/09/30 07:23:03;;;;;;;24.98;14.82;;;;;;;;;;6264220;28;20059;-61
2023/09/30 07:26:03;;;;;;;29.33;15.27;;;;;;;;;;6262801;28;20037;-61
2023/09/30 07:29:04;;;;;;;24.52;14.70;;;;;;;;;;6262892;28;20048;-62
2023/09/30 07:32:07;;;;;;;25.10;14.47;;;;;;;;;;6265495;28;20052;-61
2023/09/30 07:35:09;;;;;;;25.10;13.30;;;;;;;;;;6264151;28;20094;-62
2023/09/30 07:38:09;;;;;;;25.77;14.50;;;;;;;;;;6261882;28;20041;-62
2023/09/30 07:41:10;;;;;;;30.60;14.80;;;;;;;;;;6265022;28;20072;-62
2023/09/30 07:44:10;;;;;;;24.77;14.63;;;;;;;;;;6265526;28;20043;-61
2023/09/30 07:47:12;;;;;;;27.30;15.43;;;;;;;;;;6264131;28;20137;-62
2023/09/30 07:50:12;;;;;;;26.33;15.03;;;;;;;;;;6266280;28;20530;-61
2023/09/30 07:53:13;;;;;;;25.60;15.40;;;;;;;;;;6263126;28;20041;-61
2023/09/30 07:56:14;;;;;;;29.30;16.05;;;;;;;;;;6262348;28;20056;-62
2023/09/30 07:59:15;;;;;;;28.77;15.40;;;;;;;;;;6262463;28;20106;-62
2023/09/30 08:02:17;;;;;;;24.30;15.30;;;;;;;;;;6264943;28;20056;-61
2023/09/30 08:05:19;;;;;;;25.08;14.68;;;;;;;;;;6250650;28;20142;-61
2023/09/30 08:08:20;;;;;;;31.55;15.68;;;;;;;;;;6252579;28;20054;-61
2023/09/30 08:11:20;;;;;;;27.23;15.60;;;;;;;;;;6253268;28;20474;-61
2023/09/30 08:14:21;;;;;;;27.27;16.30;;;;;;;;;;6252260;28;20049;-61
2023/09/30 08:17:21;;;;;;;28.60;15.82;;;;;;;;;;6252304;28;20040;-61
2023/09/30 08:20:22;;;;;;;29.05;15.88;;;;;;;;;;6253644;28;20510;-61
2023/09/30 08:23:23;;;;;;;34.33;16.80;;;;;;;;;;6252769;28;20061;-61
2023/09/30 08:26:23;;;;;;;31.38;16.50;;;;;;;;;;6247423;28;20060;-61
2023/09/30 08:29:24;;;;;;;29.27;16.42;;;;;;;;;;6251916;28;20067;-61
2023/09/30 08:32:24;;;;;;;28.30;16.65;;;;;;;;;;6252821;28;20688;-61
2023/09/30 08:35:25;;;;;;;30.80;17.77;;;;;;;;;;6249189;28;20049;-61
2023/09/30 08:38:26;;;;;;;29.73;18.03;;;;;;;;;;6252471;28;20049;-62
2023/09/30 08:41:34;;;;;;;32.58;17.83;;;;;;;;;;6252623;28;20462;-61
2023/09/30 08:44:36;;;;;;;30.13;16.80;;;;;;;;;;6251804;28;20048;-61
2023/09/30 08:47:37;;;;;;;28.33;17.27;;;;;;;;;;6252679;28;20049;-61
2023/09/30 08:50:40;;;;;;;32.00;18.02;;;;;;;;;;6252218;28;20091;-61
2023/09/30 08:53:42;;;;;;;32.40;17.30;;;;;;;;;;6251133;28;20059;-61
2023/09/30 08:56:47;;;;;;;35.83;18.65;;;;;;;;;;6253190;28;20411;-61
2023/09/30 08:59:49;;;;;;;32.85;17.92;;;;;;;;;;6253545;28;20045;-62
2023/09/30 09:02:50;;;;;;;28.25;17.35;;;;;;;;;;6253275;28;20045;-61
2023/09/30 09:05:56;;;;;;;34.33;17.77;;;;;;;;;;6256108;28;20470;-61
2023/09/30 09:09:22;;;;;;;33.17;18.33;;;;;;;;;;6254819;28;20041;-61
2023/09/30 09:12:23;;;;;;;34.78;19.33;;;;;;;;;;6256665;28;20087;-62
2023/09/30 09:15:30;;;;;;;36.25;19.27;;;;;;;;;;6254582;28;20473;-61
2023/09/30 09:18:38;;;;;;;33.13;18.92;;;;;;;;;;6255266;28;20041;-61
2023/09/30 09:21:53;;;;;;;37.45;20.98;;;;;;;;;;6258220;28;20055;-61
2023/09/30 09:24:53;;;;;;;34.65;19.45;;;;;;;;;;6255283;28;20498;-62
2023/09/30 09:27:54;;;;;;;37.88;20.00;;;;;;;;;;6256327;28;20063;-61
2023/09/30 09:30:55;;;;;;;35.38;19.63;;;;;;;;;;6256419;28;20514;-62
2023/09/30 09:33:55;;;;;;;39.88;21.33;;;;;;;;;;6255428;28;20496;-61
2023/09/30 09:36:56;;;;;;;40.77;21.60;;;;;;;;;;6256316;28;20480;-62
2023/09/30 09:39:58;;;;;;;42.60;22.48;;;;;;;;;;6255728;28;20352;-62
2023/09/30 09:43:02;;;;;;;42.78;22.75;;;;;;;;;;6255448;28;20048;-62
2023/09/30 09:46:07;;;;;;;48.42;23.10;;;;;;;;;;6254333;28;20519;-61
2023/09/30 09:49:08;;;;;;;51.40;25.27;;;;;;;;;;6255541;28;20059;-61
2023/09/30 09:52:11;;;;;;;45.92;24.17;;;;;;;;;;6256563;28;20041;-61
2023/09/30 09:55:12;;;;;;;47.63;24.65;;;;;;;;;;6254914;28;20063;-62
2023/09/30 09:58:13;;;;;;;46.20;24.25;;;;;;;;;;6257988;28;20049;-64
2023/09/30 10:01:14;;;;;;;46.50;25.33;;;;;;;;;;6252868;28;20064;-61
2023/09/30 10:04:15;;;;;;;48.75;25.05;;;;;;;;;;6268551;28;20683;-65
2023/09/30 10:07:30;;;;;;;44.93;24.83;;;;;;;;;;6264718;28;20045;-62
2023/09/30 10:10:36;;;;;;;44.80;24.13;;;;;;;;;;6267765;28;20045;-64
2023/09/30 10:13:57;;;;;;;43.72;24.08;;;;;;;;;;6267395;28;20495;-60
2023/09/30 10:16:58;;;;;;;45.63;24.42;;;;;;;;;;6265436;28;20106;-60
2023/09/30 10:20:06;;;;;;;43.70;22.37;;;;;;;;;;6265116;28;20056;-60
2023/09/30 10:23:21;;;;;;;42.10;22.05;;;;;;;;;;6264528;28;20044;-60
2023/09/30 10:26:23;;;;;;;42.60;21.35;;;;;;;;;;6265607;28;20484;-61
2023/09/30 10:29:39;;;;;;;38.63;21.40;;;;;;;;;;6263181;28;20458;-60
2023/09/30 10:32:59;;;;;;;35.17;19.55;;;;;;;;;;6263004;28;20067;-61
2023/09/30 10:36:00;;;;;;;34.70;20.50;;;;;;;;;;6253609;28;20037;-61
2023/09/30 10:39:02;;;;;;;32.47;18.63;;;;;;;;;;6265621;28;20074;-61
2023/09/30 10:42:03;;;;;;;33.92;18.45;;;;;;;;;;6267644;28;20049;-60
2023/09/30 10:45:04;;;;;;;35.83;19.97;;;;;;;;;;6266963;28;20052;-62
2023/09/30 10:48:41;;;;;;;39.03;19.08;;;;;;;;;;6264854;28;20380;-60
2023/09/30 10:51:42;;;;;;;38.35;19.58;;;;;;;;;;6238565;28;20053;-60
2023/09/30 10:54:43;;;;;;;35.97;20.13;;;;;;;;;;6258449;28;20052;-60
2023/09/30 10:57:45;;;;;;;36.42;19.38;;;;;;;;;;6264803;28;20049;-60
2023/09/30 11:00:53;;;;;;;34.15;19.55;;;;;;;;;;6264981;28;20045;-60
2023/09/30 11:03:59;;;;;;;35.50;19.17;;;;;;;;;;6265594;28;20045;-60
2023/09/30 11:07:02;;;;;;;34.97;20.80;;;;;;;;;;6264820;28;20181;-61
2023/09/30 11:10:03;;;;;;;38.75;21.77;;;;;;;;;;6264508;28;20372;-61
2023/09/30 11:13:03;;;;;;;37.63;21.05;;;;;;;;;;6265507;28;20052;-60
2023/09/30 11:16:05;;;;;;;39.23;21.30;;;;;;;;;;6265044;28;20049;-60
2023/09/30 11:19:07;;;;;;;36.75;19.75;;;;;;;;;;6259798;28;20045;-60
2023/09/30 11:22:09;;;;;;;35.72;19.60;;;;;;;;;;6264751;28;20495;-60
2023/09/30 11:25:17;;;;;;;35.78;19.42;;;;;;;;;;6267325;28;20083;-61
2023/09/30 11:28:18;;;;;;;37.20;19.00;;;;;;;;;;6262466;28;20482;-60
2023/09/30 11:31:19;;;;;;;46.57;23.60;;;;;;;;;;6263628;28;20060;-61
2023/09/30 11:34:32;;;;;;;38.58;20.17;;;;;;;;;;6263440;28;20796;-60
2023/09/30 11:37:33;;;;;;;40.85;21.80;;;;;;;;;;6252619;28;20083;-60
2023/09/30 11:40:34;;;;;;;42.38;23.45;;;;;;;;;;6264687;28;20135;-60
2023/09/30 11:43:35;;;;;;;29.23;14.63;;;;;;;;;;6265012;28;20055;-61
2023/09/30 11:46:51;;;;;;;38.50;17.27;;;;;;;;;;6265501;28;20133;-60
2023/09/30 11:49:54;;;;;;;37.72;17.42;;;;;;;;;;6263461;28;20041;-59
2023/09/30 11:52:55;;;;;;;33.80;15.57;;;;;;;;;;6261757;28;20091;-59
2023/09/30 11:55:59;;;;;;;36.05;15.82;;;;;;;;;;6263675;28;20041;-60
2023/09/30 11:59:02;;;;;;;37.42;16.40;;;;;;;;;;6264314;28;20128;-60
2023/09/30 12:02:03;;;;;;;41.65;18.35;;;;;;;;;;6262338;28;20065;-60
2023/09/30 12:05:11;;;;;;;31.00;15.73;;;;;;;;;;6263918;28;20538;-60
2023/09/30 12:08:11;;;;;;;30.17;13.50;;;;;;;;;;6261153;28;20484;-60
2023/09/30 12:11:12;;;;;;;25.23;12.15;;;;;;;;;;6262912;28;20140;-59
2023/09/30 12:14:13;;;;;;;29.80;12.27;;;;;;;;;;6263637;28;20427;-59
2023/09/30 12:17:14;;;;;;;32.20;14.05;;;;;;;;;;6263819;28;20045;-59
2023/09/30 12:20:17;;;;;;;39.38;15.25;;;;;;;;;;6263627;28;20052;-59
2023/09/30 12:23:19;;;;;;;38.58;16.10;;;;;;;;;;6261058;28;20052;-59
2023/09/30 12:26:20;;;;;;;36.55;15.13;;;;;;;;;;6265949;28;20045;-59
2023/09/30 12:29:22;;;;;;;43.97;17.13;;;;;;;;;;6265475;28;20385;-59
2023/09/30 12:32:23;;;;;;;47.38;18.27;;;;;;;;;;6262227;28;20049;-60
2023/09/30 12:35:24;;;;;;;46.70;17.55;;;;;;;;;;6262497;28;20472;-59
2023/09/30 12:38:25;;;;;;;50.30;19.23;;;;;;;;;;6266037;28;20095;-59
2023/09/30 12:41:26;;;;;;;53.80;19.70;;;;;;;;;;6268259;28;20542;-60
2023/09/30 12:44:27;;;;;;;51.47;21.20;;;;;;;;;;6268103;28;20170;-61
2023/09/30 12:47:27;;;;;;;49.25;18.73;;;;;;;;;;6269751;28;20041;-60
2023/09/30 12:50:28;;;;;;;48.10;17.75;;;;;;;;;;6268279;28;20549;-60
2023/09/30 12:53:28;;;;;;;29.42;13.77;;;;;;;;;;6266665;28;20476;-59
2023/09/30 12:56:29;;;;;;;30.02;12.65;;;;;;;;;;6267637;28;20102;-60
2023/09/30 12:59:30;;;;;;;24.13;9.75;;;;;;;;;;6268160;28;20055;-59
2023/09/30 13:02:31;;;;;;;25.45;10.15;;;;;;;;;;6265702;28;20384;-60
2023/09/30 13:05:31;;;;;;;22.25;9.15;;;;;;;;;;6267503;28;20045;-60
2023/09/30 13:08:33;;;;;;;21.73;9.88;;;;;;;;;;6268432;28;20088;-59
2023/09/30 13:11:34;;;;;;;;;;;;;;;;;;6268485;28;20384;-59
2023/09/30 13:14:34;;;;;;;23.38;9.35;;;;;;;;;;6265959;28;20345;-59
2023/09/30 13:17:35;;;;;;;24.77;9.73;;;;;;;;;;6268160;28;20403;-59
2023/09/30 13:20:36;;;;;;;24.40;9.65;;;;;;;;;;6269742;28;20045;-59
2023/09/30 13:23:36;;;;;;;23.75;9.45;;;;;;;;;;6267139;28;20490;-59
2023/09/30 13:26:37;;;;;;;20.75;8.68;;;;;;;;;;6259996;28;20048;-59
2023/09/30 13:29:38;;;;;;;19.08;8.18;;;;;;;;;;6251864;28;21527;-61
2023/09/30 13:32:39;;;;;;;24.40;8.20;;;;;;;;;;6253794;28;20483;-59
2023/09/30 13:35:39;;;;;;;23.93;8.77;;;;;;;;;;6253864;28;20412;-58
2023/09/30 13:38:40;;;;;;;19.23;8.30;;;;;;;;;;6252864;28;20309;-60
2023/09/30 13:41:41;;;;;;;22.83;9.15;;;;;;;;;;6255791;28;20044;-59
2023/09/30 13:44:41;;;;;;;21.73;8.93;;;;;;;;;;6255877;28;20045;-62
2023/09/30 13:47:42;;;;;;;22.85;9.20;;;;;;;;;;6251905;28;20081;-60
2023/09/30 13:50:43;;;;;;;20.63;9.60;;;;;;;;;;6254546;28;20052;-63
2023/09/30 13:53:43;;;;;;;23.33;9.02;;;;;;;;;;6253940;28;20065;-61
2023/09/30 13:56:44;;;;;;;21.45;8.63;;;;;;;;;;6255564;28;20661;-60
2023/09/30 13:59:46;;;;;;;19.85;9.02;;;;;;;;;;6252663;28;20483;-62
2023/09/30 14:02:46;;;;;;;24.60;9.13;;;;;;;;;;6254364;28;20087;-60
2023/09/30 14:05:47;;;;;;;22.10;9.00;;;;;;;;;;6258136;28;20526;-61
2023/09/30 14:08:47;;;;;;;19.52;8.65;;;;;;;;;;6251499;28;20492;-61
2023/09/30 14:11:48;;;;;;;22.70;9.43;;;;;;;;;;6254319;28;20049;-60
2023/09/30 14:14:51;;;;;;;22.48;8.80;;;;;;;;;;6254525;28;20057;-59
2023/09/30 14:17:52;;;;;;;19.92;8.88;;;;;;;;;;6256186;28;20067;-59
2023/09/30 14:20:53;;;;;;;23.85;9.82;;;;;;;;;;6256942;28;20049;-57
2023/09/30 14:23:54;;;;;;;20.73;9.50;;;;;;;;;;6257342;28;20053;-56
2023/09/30 14:26:55;;;;;;;19.87;9.73;;;;;;;;;;6256487;28;20503;-57
2023/09/30 14:29:56;;;;;;;20.92;9.23;;;;;;;;;;6257018;28;20438;-55
2023/09/30 14:32:56;;;;;;;23.70;9.63;;;;;;;;;;6256035;28;20049;-59
2023/09/30 14:35:57;;;;;;;22.13;9.68;;;;;;;;;;6258193;28;20045;-59
2023/09/30 14:38:58;;;;;;;19.37;8.60;;;;;;;;;;6254955;28;20076;-59
2023/09/30 14:41:58;;;;;;;21.27;9.63;;;;;;;;;;6255647;28;20060;-59
2023/09/30 14:44:59;;;;;;;23.50;9.33;;;;;;;;;;6257458;28;20684;-59
2023/09/30 14:48:00;;;;;;;23.80;10.10;;;;;;;;;;6256239;28;20582;-58
2023/09/30 14:51:00;;;;;;;16.75;8.25;;;;;;;;;;6258273;28;20049;-58
2023/09/30 14:54:02;;;;;;;21.10;9.52;;;;;;;;;;6271406;28;20196;-58
2023/09/30 14:57:03;;;;;;;21.10;8.82;;;;;;;;;;6257070;28;20048;-58
2023/09/30 15:00:06;;;;;;;17.88;6.70;;;;;;;;;;6255544;28;20503;-59
2023/09/30 15:03:06;;;;;;;14.75;7.20;;;;;;;;;;6255821;28;20048;-58
2023/09/30 15:06:07;;;;;;;15.50;7.10;;;;;;;;;;6274008;28;21714;-62
2023/09/30 15:09:11;;;;;;;15.50;5.55;;;;;;;;;;6255597;28;20131;-59
2023/09/30 15:12:12;;;;;;;16.08;6.13;;;;;;;;;;6255588;28;20071;-59
2023/09/30 15:15:13;;;;;;;15.10;5.00;;;;;;;;;;6257682;28;20056;-59
2023/09/30 15:18:14;;;;;;;19.00;5.65;;;;;;;;;;6255396;28;20044;-59
2023/09/30 15:21:15;;;;;;;11.63;4.85;;;;;;;;;;6257504;28;20072;-59
2023/09/30 15:24:16;;;;;;;13.73;5.07;;;;;;;;;;6255657;28;20621;-59
2023/09/30 15:27:18;;;;;;;15.23;5.25;;;;;;;;;;6256675;28;20049;-59
2023/09/30 15:30:18;;;;;;;;;;;;;;;;;;6256466;28;20487;-59
2023/09/30 15:33:19;;;;;;;13.52;4.50;;;;;;;;;;6259994;28;19932;-58
2023/09/30 15:36:20;;;;;;;12.82;4.53;;;;;;;;;;6258094;28;20067;-59
2023/09/30 15:39:21;;;;;;;14.02;4.07;;;;;;;;;;6254596;28;20068;-58
2023/09/30 15:42:21;;;;;;;12.57;5.13;;;;;;;;;;6254665;28;20096;-60
2023/09/30 15:45:23;;;;;;;12.70;4.78;;;;;;;;;;6255577;28;20472;-60
2023/09/30 15:48:24;;;;;;;13.25;4.85;;;;;;;;;;6253433;28;20044;-59
2023/09/30 15:51:25;;;;;;;15.77;4.10;;;;;;;;;;6256488;28;20040;-60
2023/09/30 15:54:26;;;;;;;14.82;4.68;;;;;;;;;;6255081;28;20494;-60
2023/09/30 15:57:26;;;;;;;14.02;4.75;;;;;;;;;;6255306;28;20203;-59
2023/09/30 16:00:27;;;;;;;15.43;5.40;;;;;;;;;;6255618;28;20053;-59
2023/09/30 16:03:28;;;;;;;15.70;5.00;;;;;;;;;;6255680;28;20049;-58
2023/09/30 16:06:28;;;;;;;15.25;4.70;;;;;;;;;;6262494;28;20119;-59
2023/09/30 16:09:29;;;;;;;16.48;4.97;;;;;;;;;;6253647;28;20424;-63
2023/09/30 16:12:30;;;;;;;19.58;5.85;;;;;;;;;;6253566;28;20083;-60
2023/09/30 16:15:30;;;;;;;13.68;5.00;;;;;;;;;;6254913;28;20053;-61
2023/09/30 16:18:31;;;;;;;14.32;4.57;;;;;;;;;;6253919;28;20055;-62
2023/09/30 16:21:31;;;;;;;14.48;5.90;;;;;;;;;;6255729;28;20076;-62
2023/09/30 16:24:32;;;;;;;13.95;5.00;;;;;;;;;;6255814;28;20131;-62
2023/09/30 16:27:32;;;;;;;12.65;5.35;;;;;;;;;;6254372;28;20060;-62
2023/09/30 16:30:34;;;;;;;18.77;5.45;;;;;;;;;;6253404;28;20048;-61
2023/09/30 16:33:35;;;;;;;13.63;5.27;;;;;;;;;;6255835;28;20168;-63
2023/09/30 16:36:37;;;;;;;13.02;4.60;;;;;;;;;;6256033;28;20059;-61
2023/09/30 16:39:37;;;;;;;14.40;5.65;;;;;;;;;;6251411;28;20071;-62
2023/09/30 16:42:38;;;;;;;17.33;6.88;;;;;;;;;;6253352;28;20053;-61
2023/09/30 16:45:39;;;;;;;18.27;6.90;;;;;;;;;;6256354;28;20695;-61
2023/09/30 16:48:40;;;;;;;24.85;7.03;;;;;;;;;;6253659;28;20056;-60
2023/09/30 16:51:40;;;;;;;21.48;6.85;;;;;;;;;;6259607;28;20541;-60
2023/09/30 16:54:41;;;;;;;20.60;7.28;;;;;;;;;;6254974;28;20518;-61
2023/09/30 16:57:41;;;;;;;16.38;7.57;;;;;;;;;;6254888;28;20053;-61
2023/09/30 17:00:42;;;;;;;22.55;7.28;;;;;;;;;;6253615;28;20071;-61
2023/09/30 17:03:43;;;;;;;16.00;6.20;;;;;;;;;;6254688;28;20053;-61
2023/09/30 17:06:45;;;;;;;15.60;5.68;;;;;;;;;;6254807;28;20523;-62
2023/09/30 17:09:46;;;;;;;14.35;5.82;;;;;;;;;;6254009;28;20049;-62
2023/09/30 17:12:47;;;;;;;16.85;6.80;;;;;;;;;;6254218;28;20510;-59
2023/09/30 17:15:47;;;;;;;15.02;6.40;;;;;;;;;;6255360;28;20064;-62
2023/09/30 17:18:49;;;;;;;19.33;6.70;;;;;;;;;;6253362;28;20613;-61
2023/09/30 17:21:49;;;;;;;19.13;6.72;;;;;;;;;;6255250;28;20083;-62
2023/09/30 17:24:50;;;;;;;14.88;5.63;;;;;;;;;;6256644;28;20103;-61
2023/09/30 17:27:51;;;;;;;19.85;7.53;;;;;;;;;;6257372;28;20053;-61
2023/09/30 17:30:52;;;;;;;21.48;7.70;;;;;;;;;;6256542;28;20126;-62
2023/09/30 17:33:52;;;;;;;23.17;8.35;;;;;;;;;;6257422;28;20049;-59
2023/09/30 17:36:53;;;;;;;16.80;7.55;;;;;;;;;;6258053;28;20483;-62
2023/09/30 17:39:53;;;;;;;17.10;6.90;;;;;;;;;;6256781;28;20060;-64
2023/09/30 17:42:54;;;;;;;21.27;7.47;;;;;;;;;;6256809;28;20292;-64